Terminal Aerodrome Forecast
Issued by NWS

Home | Current Version | Previous Version | Text Only | Print | Product List | Glossary Off
Versions: 1 2 3 4 5 6 7 8 9 10 11 12 13 14 15 16 17 18 19 20 21 22 23 24 25 26 27 28 29 30 31 32 33 34

000
FTUS43 KGRB 271100
TAFRHI
TAF
KRHI 271135Z 2712/2812 28011KT P6SM VCSH SCT035 BKN080
      TEMPO 2712/2716 3SM -SHRA BR SCT020 BKN030
     FM271600 33012G19KT P6SM VCSH SCT015 BKN050
     FM271900 34012G16KT P6SM SCT050 BKN100
     FM272300 34009KT P6SM SKC=

USA.gov is the U.S. government's official web portal to all federal, state and local government web resources and services.